KELM/ELM METAR and TAF weather

Enter ICAO airport designator
Station Type Date Time Source
KELM METAR 2021/09/20 05:27 UTC NOAA

KELM 200527Z AUTO 00000KT 1 3/4SM BR CLR 08/08 A3025 RMK AO2 T00830078


Station Type Date Time Source
KELM Decoded METAR 2021/09/20 05:27 UTC NOAA

ELMIRA COUNTY AIRPORT, NY, United States (KELM) 42-10N 76-54W 302M
Sep 20, 2021 - 01:27 AM EDT / 2021.09.20 0527 UTC
Wind: Calm:0
Visibility: 1 3/4 mile(s):0
Sky conditions: clear
Weather: mist
Temperature: 46.9 F (8.3 C)
Dew Point: 46.0 F (7.8 C)
Relative Humidity: 96%
Pressure (altimeter): 30.25 in. Hg (1024 hPa)
ob: KELM 200527Z AUTO 00000KT 1 3/4SM BR CLR 08/08 A3025 RMK AO2 T00830078
cycle: 5

Station Type Date Time Source
KELM TAF 2021/09/20 06:33 UTC NOAA

TAF KELM 200530Z 2006/2106 00000KT 3SM BR SCT002
TEMPO 2006/2007 1/2SM FG VV002
FM200700 00000KT 1/2SM FG VV002
FM201300 17005KT P6SM SKC
FM201700 17007G15KT P6SM FEW150

Example: see airport list